createdAt,value
2017-01-13T00:00:14.829Z,933.5
2017-01-13T00:00:43.014Z,933.49
2017-01-13T00:01:11.186Z,933.49
2017-01-13T00:01:39.354Z,933.47
2017-01-13T00:02:07.540Z,933.48
2017-01-13T00:02:35.809Z,933.51
2017-01-13T00:03:03.945Z,933.51
2017-01-13T00:03:32.194Z,933.5
2017-01-13T00:04:00.342Z,933.52
2017-01-13T00:04:28.522Z,933.52
2017-01-13T00:04:56.698Z,933.52
2017-01-13T00:05:24.877Z,933.53
2017-01-13T00:05:53.024Z,933.53
2017-01-13T00:06:21.212Z,933.5
2017-01-13T00:06:49.417Z,933.51
2017-01-13T00:07:17.598Z,933.52
2017-01-13T00:07:45.765Z,933.54
2017-01-13T00:08:14.036Z,933.53
2017-01-13T00:08:42.194Z,933.54
2017-01-13T00:09:10.375Z,933.54
2017-01-13T00:09:38.551Z,933.57
2017-01-13T00:10:06.711Z,933.57
2017-01-13T00:10:35.016Z,933.53
2017-01-13T00:11:03.283Z,933.55
2017-01-13T00:11:31.466Z,933.54
2017-01-13T00:11:59.647Z,933.56
2017-01-13T00:12:27.833Z,933.53
2017-01-13T00:12:55.985Z,933.54
2017-01-13T00:13:24.142Z,933.59
2017-01-13T00:13:52.314Z,933.55
2017-01-13T00:14:20.491Z,933.57
2017-01-13T00:14:48.856Z,933.57
2017-01-13T00:15:17.191Z,933.58
2017-01-13T00:15:45.352Z,933.6
2017-01-13T00:16:13.541Z,933.57
2017-01-13T00:16:41.770Z,933.58
2017-01-13T00:17:10.096Z,933.58
2017-01-13T00:17:38.303Z,933.59
2017-01-13T00:18:06.455Z,933.56
2017-01-13T00:18:34.642Z,933.6
2017-01-13T00:19:02.800Z,933.58
2017-01-13T00:19:31.000Z,933.59
2017-01-13T00:19:59.170Z,933.56
2017-01-13T00:20:27.332Z,933.61
2017-01-13T00:20:55.490Z,933.59
2017-01-13T00:21:23.681Z,933.6
2017-01-13T00:21:51.837Z,933.63
2017-01-13T00:22:19.975Z,933.65
2017-01-13T00:22:48.192Z,933.61
2017-01-13T00:23:16.446Z,933.62
2017-01-13T00:23:44.628Z,933.67
2017-01-13T00:24:12.800Z,933.62
2017-01-13T00:24:40.963Z,933.62
2017-01-13T00:25:09.097Z,933.6
2017-01-13T00:25:37.298Z,933.57
2017-01-13T00:26:05.486Z,933.57
2017-01-13T00:26:33.673Z,933.58
2017-01-13T00:27:01.843Z,933.57
2017-01-13T00:27:30.048Z,933.57
2017-01-13T00:27:58.218Z,933.58
2017-01-13T00:28:26.374Z,933.57
2017-01-13T00:28:54.645Z,933.57
2017-01-13T00:29:22.814Z,933.59
2017-01-13T00:29:51.051Z,933.64
2017-01-13T00:30:19.229Z,933.65
2017-01-13T00:30:47.420Z,933.64
2017-01-13T00:31:15.559Z,933.67
2017-01-13T00:31:43.715Z,933.68
2017-01-13T00:32:11.853Z,933.67
2017-01-13T00:32:40.007Z,933.61
2017-01-13T00:33:08.185Z,933.61
2017-01-13T00:33:36.343Z,933.64
2017-01-13T00:34:04.501Z,933.7
2017-01-13T00:34:32.661Z,933.65
2017-01-13T00:35:00.823Z,933.7
2017-01-13T00:35:28.964Z,933.68
2017-01-13T00:35:57.234Z,933.74
2017-01-13T00:36:25.364Z,933.7
2017-01-13T00:36:53.588Z,933.68
2017-01-13T00:37:21.855Z,933.66
2017-01-13T00:37:50.028Z,933.67
2017-01-13T00:38:18.178Z,933.7
2017-01-13T00:38:46.398Z,933.64
2017-01-13T00:39:14.546Z,933.7
2017-01-13T00:39:42.682Z,933.68
2017-01-13T00:40:10.917Z,933.71
2017-01-13T00:40:39.145Z,933.74
2017-01-13T00:41:07.322Z,933.72
2017-01-13T00:41:35.488Z,933.73
2017-01-13T00:42:03.681Z,933.73
2017-01-13T00:42:31.936Z,933.81
2017-01-13T00:43:00.095Z,933.78
2017-01-13T00:43:28.282Z,933.82
2017-01-13T00:43:56.531Z,933.76
2017-01-13T00:44:24.675Z,933.75
2017-01-13T00:44:52.828Z,933.75
2017-01-13T00:45:20.986Z,933.74
2017-01-13T00:45:49.135Z,933.75
2017-01-13T00:46:17.260Z,933.76
2017-01-13T00:46:45.399Z,933.74
2017-01-13T00:47:13.542Z,933.7
2017-01-13T00:47:41.769Z,933.72
2017-01-13T00:48:09.904Z,933.68
2017-01-13T00:48:38.230Z,933.66
2017-01-13T00:49:06.371Z,933.7
2017-01-13T00:49:34.528Z,933.68
2017-01-13T00:50:02.677Z,933.68
2017-01-13T00:50:30.830Z,933.69
2017-01-13T00:50:58.984Z,933.71
2017-01-13T00:51:27.133Z,933.72
2017-01-13T00:51:55.283Z,933.72
2017-01-13T00:52:23.420Z,933.72
2017-01-13T00:52:51.640Z,933.73
2017-01-13T00:53:19.787Z,933.71
2017-01-13T00:53:47.924Z,933.7
2017-01-13T00:54:16.076Z,933.73
2017-01-13T00:54:44.237Z,933.72
2017-01-13T00:55:12.393Z,933.72
2017-01-13T00:55:40.589Z,933.71
2017-01-13T00:56:08.773Z,933.71
2017-01-13T00:56:36.920Z,933.71
2017-01-13T00:57:05.075Z,933.71
2017-01-13T00:57:33.232Z,933.7
2017-01-13T00:58:01.474Z,933.7
2017-01-13T00:58:29.765Z,933.69
2017-01-13T00:58:57.912Z,933.73
2017-01-13T00:59:26.041Z,933.68
2017-01-13T00:59:54.230Z,933.68
2017-01-13T01:00:22.452Z,933.68
2017-01-13T01:00:50.622Z,933.66
2017-01-13T01:01:18.764Z,933.65
2017-01-13T01:01:46.917Z,933.63
2017-01-13T01:02:15.106Z,933.67
2017-01-13T01:02:43.250Z,933.64
2017-01-13T01:03:11.409Z,933.66
2017-01-13T01:03:39.549Z,933.65
2017-01-13T01:04:07.806Z,933.68
2017-01-13T01:04:35.951Z,933.67
2017-01-13T01:05:04.089Z,933.67
2017-01-13T01:05:32.236Z,933.65
2017-01-13T01:06:00.407Z,933.66
2017-01-13T01:06:28.582Z,933.64
2017-01-13T01:06:56.763Z,933.65
2017-01-13T01:07:24.928Z,933.64
2017-01-13T01:07:53.094Z,933.67
2017-01-13T01:08:21.266Z,933.65
2017-01-13T01:08:49.430Z,933.66
2017-01-13T01:09:17.598Z,933.68
2017-01-13T01:09:45.780Z,933.65
2017-01-13T01:10:13.933Z,933.66
2017-01-13T01:10:42.097Z,933.66
2017-01-13T01:11:10.267Z,933.65
2017-01-13T01:11:38.430Z,933.67
2017-01-13T01:12:06.592Z,933.66
2017-01-13T01:12:34.752Z,933.65
2017-01-13T01:13:02.905Z,933.62
2017-01-13T01:13:31.137Z,933.64
2017-01-13T01:13:59.363Z,933.61
2017-01-13T01:14:27.596Z,933.65
2017-01-13T01:14:55.795Z,933.63
2017-01-13T01:15:23.970Z,933.62
2017-01-13T01:15:52.114Z,933.63
2017-01-13T01:16:20.286Z,933.61
2017-01-13T01:16:48.458Z,933.63
2017-01-13T01:17:16.612Z,933.6
2017-01-13T01:17:44.819Z,933.61
2017-01-13T01:18:12.972Z,933.59
2017-01-13T01:18:41.235Z,933.61
2017-01-13T01:19:09.380Z,933.56
2017-01-13T01:19:37.539Z,933.58
2017-01-13T01:20:05.793Z,933.56
2017-01-13T01:20:33.968Z,933.59
2017-01-13T01:21:02.138Z,933.53
2017-01-13T01:21:30.432Z,933.59
2017-01-13T01:21:58.660Z,933.58
2017-01-13T01:22:26.813Z,933.52
2017-01-13T01:22:54.991Z,933.57
2017-01-13T01:23:23.159Z,933.56
2017-01-13T01:23:51.333Z,933.55
2017-01-13T01:24:19.475Z,933.59
2017-01-13T01:24:47.620Z,933.56
2017-01-13T01:25:15.781Z,933.58
2017-01-13T01:25:43.942Z,933.59
2017-01-13T01:26:12.090Z,933.58
2017-01-13T01:26:40.230Z,933.59
2017-01-13T01:27:08.440Z,933.55
2017-01-13T01:27:36.617Z,933.58
2017-01-13T01:28:04.771Z,933.57
2017-01-13T01:28:32.931Z,933.53
2017-01-13T01:29:01.134Z,933.5
2017-01-13T01:29:29.305Z,933.46
2017-01-13T01:29:57.452Z,933.53
2017-01-13T01:30:25.737Z,933.5
2017-01-13T01:30:53.898Z,933.52
2017-01-13T01:31:22.057Z,933.53
2017-01-13T01:31:50.293Z,933.51
2017-01-13T01:32:18.462Z,933.51
2017-01-13T01:32:46.623Z,933.53
2017-01-13T01:33:14.789Z,933.53
2017-01-13T01:33:42.952Z,933.52
2017-01-13T01:34:11.127Z,933.51
2017-01-13T01:34:39.295Z,933.53
2017-01-13T01:35:07.447Z,933.51
2017-01-13T01:35:35.637Z,933.52
2017-01-13T01:36:03.777Z,933.51
2017-01-13T01:36:31.956Z,933.55
2017-01-13T01:37:00.125Z,933.55
2017-01-13T01:37:28.297Z,933.53
2017-01-13T01:37:56.452Z,933.55
2017-01-13T01:38:24.603Z,933.55
2017-01-13T01:38:52.894Z,933.58
2017-01-13T01:39:21.066Z,933.54
2017-01-13T01:39:49.241Z,933.6
2017-01-13T01:40:17.403Z,933.6
2017-01-13T01:40:45.579Z,933.62
2017-01-13T01:41:13.735Z,933.63
2017-01-13T01:41:41.992Z,933.66
2017-01-13T01:42:10.186Z,933.63
2017-01-13T01:42:38.372Z,933.63
2017-01-13T01:43:06.550Z,933.63
2017-01-13T01:43:34.732Z,933.65
2017-01-13T01:44:02.907Z,933.66
2017-01-13T01:44:31.050Z,933.67
2017-01-13T01:44:59.235Z,933.7
2017-01-13T01:45:27.443Z,933.7
2017-01-13T01:45:55.615Z,933.69
2017-01-13T01:46:23.767Z,933.67
2017-01-13T01:46:51.950Z,933.68
2017-01-13T01:47:20.330Z,933.73
2017-01-13T01:47:48.500Z,933.67
2017-01-13T01:48:16.878Z,933.68
2017-01-13T01:48:45.056Z,933.71
2017-01-13T01:49:13.319Z,933.67
2017-01-13T01:49:41.494Z,933.69
2017-01-13T01:50:09.780Z,933.7
2017-01-13T01:50:37.943Z,933.64
2017-01-13T01:51:06.134Z,933.66
2017-01-13T01:51:34.326Z,933.7
2017-01-13T01:52:02.492Z,933.68
2017-01-13T01:52:30.689Z,933.69
2017-01-13T01:52:58.846Z,933.68
2017-01-13T01:53:27.015Z,933.68
2017-01-13T01:53:55.181Z,933.69
2017-01-13T01:54:23.358Z,933.68
2017-01-13T01:54:51.558Z,933.72
2017-01-13T01:55:19.698Z,933.7
2017-01-13T01:55:48.146Z,933.63
2017-01-13T01:56:16.291Z,933.71
2017-01-13T01:56:44.475Z,933.65
2017-01-13T01:57:12.658Z,933.68
2017-01-13T01:57:40.844Z,933.64
2017-01-13T01:58:09.011Z,933.66
2017-01-13T01:58:37.204Z,933.7
2017-01-13T01:59:05.352Z,933.71
2017-01-13T01:59:33.529Z,933.7
2017-01-13T02:00:01.685Z,933.68
2017-01-13T02:00:29.821Z,933.67
2017-01-13T02:00:58.096Z,933.7
2017-01-13T02:01:26.246Z,933.7
2017-01-13T02:01:54.475Z,933.67
2017-01-13T02:02:22.827Z,933.66
2017-01-13T02:02:51.019Z,933.7
2017-01-13T02:03:19.181Z,933.69
2017-01-13T02:03:47.330Z,933.69
2017-01-13T02:04:15.528Z,933.74
2017-01-13T02:04:43.703Z,933.65
2017-01-13T02:05:11.876Z,933.71
2017-01-13T02:05:40.048Z,933.7
2017-01-13T02:06:08.212Z,933.7
2017-01-13T02:06:36.361Z,933.73
2017-01-13T02:07:04.491Z,933.73
2017-01-13T02:07:32.657Z,933.73
2017-01-13T02:08:00.839Z,933.76
2017-01-13T02:08:29.108Z,933.71
2017-01-13T02:08:57.287Z,933.7
2017-01-13T02:09:25.546Z,933.72
2017-01-13T02:09:53.700Z,933.73
2017-01-13T02:10:21.993Z,933.73
2017-01-13T02:10:50.252Z,933.75
2017-01-13T02:11:18.535Z,933.75
2017-01-13T02:11:46.683Z,933.78
2017-01-13T02:12:14.864Z,933.71
2017-01-13T02:12:43.043Z,933.7
2017-01-13T02:13:11.209Z,933.67
2017-01-13T02:13:39.381Z,933.71
2017-01-13T02:14:07.593Z,933.66
2017-01-13T02:14:35.767Z,933.66
2017-01-13T02:15:03.970Z,933.67
2017-01-13T02:15:32.230Z,933.7
2017-01-13T02:16:00.382Z,933.66
2017-01-13T02:16:28.551Z,933.69
2017-01-13T02:16:56.701Z,933.69
2017-01-13T02:17:24.859Z,933.67
2017-01-13T02:17:53.015Z,933.67
2017-01-13T02:18:21.177Z,933.64
2017-01-13T02:18:49.353Z,933.64
2017-01-13T02:19:17.515Z,933.61
2017-01-13T02:19:45.676Z,933.68
2017-01-13T02:20:13.873Z,933.63
2017-01-13T02:20:42.042Z,933.65
2017-01-13T02:21:10.214Z,933.62
2017-01-13T02:21:38.391Z,933.64
2017-01-13T02:22:06.561Z,933.63
2017-01-13T02:22:34.829Z,933.64
2017-01-13T02:23:03.014Z,933.68
2017-01-13T02:23:31.190Z,933.64
2017-01-13T02:23:59.411Z,933.58
2017-01-13T02:24:27.570Z,933.6
2017-01-13T02:24:55.732Z,933.62
2017-01-13T02:25:23.891Z,933.63
2017-01-13T02:25:52.231Z,933.6
2017-01-13T02:26:20.453Z,933.61
2017-01-13T02:26:48.705Z,933.58
2017-01-13T02:27:16.884Z,933.54
2017-01-13T02:27:45.068Z,933.59
2017-01-13T02:28:13.251Z,933.55
2017-01-13T02:28:41.436Z,933.58
2017-01-13T02:29:09.612Z,933.58
2017-01-13T02:29:37.773Z,933.53
2017-01-13T02:30:06.046Z,933.55
2017-01-13T02:30:34.212Z,933.54
2017-01-13T02:31:02.383Z,933.52
2017-01-13T02:31:30.564Z,933.56
2017-01-13T02:31:58.746Z,933.5
2017-01-13T02:32:26.913Z,933.53
2017-01-13T02:32:55.054Z,933.51
2017-01-13T02:33:23.240Z,933.5
2017-01-13T02:33:51.411Z,933.54
2017-01-13T02:34:19.612Z,933.54
2017-01-13T02:34:47.793Z,933.54
2017-01-13T02:35:15.945Z,933.55
2017-01-13T02:35:44.213Z,933.51
2017-01-13T02:36:12.367Z,933.56
2017-01-13T02:36:40.517Z,933.54
2017-01-13T02:37:08.691Z,933.53
2017-01-13T02:37:36.952Z,933.57
2017-01-13T02:38:05.127Z,933.56
2017-01-13T02:38:33.266Z,933.58
2017-01-13T02:39:01.450Z,933.58
2017-01-13T02:39:29.639Z,933.55
2017-01-13T02:39:57.909Z,933.52
2017-01-13T02:40:26.084Z,933.52
2017-01-13T02:40:54.251Z,933.55
2017-01-13T02:41:22.389Z,933.52
2017-01-13T02:41:50.547Z,933.48
2017-01-13T02:42:18.682Z,933.49
2017-01-13T02:42:46.857Z,933.49
2017-01-13T02:43:15.014Z,933.49
2017-01-13T02:43:43.238Z,933.48
2017-01-13T02:44:11.386Z,933.53
2017-01-13T02:44:39.571Z,933.48
2017-01-13T02:45:07.718Z,933.47
2017-01-13T02:45:35.899Z,933.51
2017-01-13T02:46:04.092Z,933.49
2017-01-13T02:46:32.273Z,933.44
2017-01-13T02:47:00.442Z,933.44
2017-01-13T02:47:28.714Z,933.46
2017-01-13T02:47:56.870Z,933.47
2017-01-13T02:48:25.075Z,933.44
2017-01-13T02:48:53.288Z,933.45
2017-01-13T02:49:21.470Z,933.43
2017-01-13T02:49:49.653Z,933.47
2017-01-13T02:50:18.108Z,933.46
2017-01-13T02:50:47.170Z,933.44
2017-01-13T02:51:16.399Z,933.4
2017-01-13T02:51:44.875Z,933.47
2017-01-13T02:52:13.311Z,933.45
2017-01-13T02:52:41.550Z,933.45
2017-01-13T02:53:10.059Z,933.43
2017-01-13T02:53:38.247Z,933.42
2017-01-13T02:54:06.581Z,933.45
2017-01-13T02:54:34.772Z,933.45
2017-01-13T02:55:02.948Z,933.42
2017-01-13T02:55:31.200Z,933.41
2017-01-13T02:55:59.375Z,933.4
2017-01-13T02:56:27.558Z,933.45
2017-01-13T02:56:55.707Z,933.37
2017-01-13T02:57:23.854Z,933.41
2017-01-13T02:57:52.102Z,933.42
2017-01-13T02:58:20.260Z,933.44
2017-01-13T02:58:48.423Z,933.36
2017-01-13T02:59:16.572Z,933.39
2017-01-13T02:59:44.798Z,933.36
2017-01-13T03:00:12.973Z,933.38
2017-01-13T03:00:42.349Z,933.37
2017-01-13T03:01:10.492Z,933.35
2017-01-13T03:01:38.654Z,933.33
2017-01-13T03:02:06.789Z,933.33
2017-01-13T03:02:34.968Z,933.33
2017-01-13T03:03:03.175Z,933.36
2017-01-13T03:03:31.312Z,933.34
2017-01-13T03:03:59.495Z,933.34
2017-01-13T03:04:27.724Z,933.36
2017-01-13T03:04:55.913Z,933.26
2017-01-13T03:05:24.084Z,933.28
2017-01-13T03:05:52.279Z,933.29
2017-01-13T03:06:20.456Z,933.31
2017-01-13T03:06:48.625Z,933.32
2017-01-13T03:07:16.790Z,933.32
2017-01-13T03:07:44.971Z,933.3
2017-01-13T03:08:13.171Z,933.34
2017-01-13T03:08:41.458Z,933.31
2017-01-13T03:09:09.715Z,933.34
2017-01-13T03:09:37.959Z,933.33
2017-01-13T03:10:06.217Z,933.34
2017-01-13T03:10:34.379Z,933.34
2017-01-13T03:11:02.608Z,933.32
2017-01-13T03:11:30.770Z,933.3
2017-01-13T03:11:58.968Z,933.32
2017-01-13T03:12:27.151Z,933.27
2017-01-13T03:12:55.327Z,933.29
2017-01-13T03:13:23.478Z,933.28
2017-01-13T03:13:51.654Z,933.32
2017-01-13T03:14:19.839Z,933.27
2017-01-13T03:14:48.023Z,933.28
2017-01-13T03:15:16.227Z,933.28
2017-01-13T03:15:44.400Z,933.3
2017-01-13T03:16:12.543Z,933.27
2017-01-13T03:16:40.710Z,933.26
2017-01-13T03:17:08.879Z,933.28
2017-01-13T03:17:37.050Z,933.27
2017-01-13T03:18:05.234Z,933.27
2017-01-13T03:18:33.407Z,933.25
2017-01-13T03:19:01.585Z,933.27
2017-01-13T03:19:29.783Z,933.28
2017-01-13T03:19:57.953Z,933.27
2017-01-13T03:20:26.165Z,933.24
2017-01-13T03:20:54.324Z,933.25
2017-01-13T03:21:22.596Z,933.27
2017-01-13T03:21:50.777Z,933.27
2017-01-13T03:22:19.013Z,933.21
2017-01-13T03:22:47.161Z,933.19
2017-01-13T03:23:15.322Z,933.2
2017-01-13T03:23:43.488Z,933.16
2017-01-13T03:24:11.646Z,933.17
2017-01-13T03:24:39.818Z,933.17
2017-01-13T03:25:08.002Z,933.15
2017-01-13T03:25:36.152Z,933.11
2017-01-13T03:26:04.323Z,933.15
2017-01-13T03:26:32.469Z,933.11
2017-01-13T03:27:00.728Z,933.12
2017-01-13T03:27:28.930Z,933.08
2017-01-13T03:27:57.105Z,933.11
2017-01-13T03:28:25.379Z,933.09
2017-01-13T03:28:53.522Z,933.06
2017-01-13T03:29:21.707Z,933.08
2017-01-13T03:29:49.887Z,933.03
2017-01-13T03:30:18.044Z,933
2017-01-13T03:30:46.190Z,933.03
2017-01-13T03:31:14.338Z,932.98
2017-01-13T03:31:42.599Z,933.01
2017-01-13T03:32:10.752Z,932.96
2017-01-13T03:32:39.069Z,932.98
2017-01-13T03:33:07.255Z,932.98
2017-01-13T03:33:35.451Z,932.96
2017-01-13T03:34:03.581Z,932.96
2017-01-13T03:34:31.770Z,932.95
2017-01-13T03:34:59.967Z,932.91
2017-01-13T03:35:28.128Z,932.93
2017-01-13T03:35:56.273Z,932.94
2017-01-13T03:36:24.480Z,932.95
2017-01-13T03:36:52.615Z,932.94
2017-01-13T03:37:20.806Z,932.92
2017-01-13T03:37:48.975Z,932.92
2017-01-13T03:38:17.148Z,932.92
2017-01-13T03:38:45.368Z,932.94
2017-01-13T03:39:13.540Z,932.89
2017-01-13T03:39:41.747Z,932.91
2017-01-13T03:40:09.919Z,932.88
2017-01-13T03:40:38.088Z,932.9
2017-01-13T03:41:06.302Z,932.85
2017-01-13T03:41:34.477Z,932.85
2017-01-13T03:42:02.613Z,932.86
2017-01-13T03:42:30.769Z,932.84
2017-01-13T03:42:58.942Z,932.8
2017-01-13T03:43:27.096Z,932.83
2017-01-13T03:43:55.264Z,932.78
2017-01-13T03:44:23.525Z,932.8
2017-01-13T03:44:51.672Z,932.77
2017-01-13T03:45:19.865Z,932.76
2017-01-13T03:45:48.053Z,932.73
2017-01-13T03:46:16.233Z,932.71
2017-01-13T03:46:44.403Z,932.7
2017-01-13T03:47:12.659Z,932.7
2017-01-13T03:47:40.844Z,932.72
2017-01-13T03:48:09.018Z,932.71
2017-01-13T03:48:37.197Z,932.69
2017-01-13T03:49:05.362Z,932.7
2017-01-13T03:49:33.541Z,932.66
2017-01-13T03:50:01.717Z,932.66
2017-01-13T03:50:29.900Z,932.66
2017-01-13T03:50:58.083Z,932.67
2017-01-13T03:51:26.232Z,932.66
2017-01-13T03:51:54.427Z,932.64
2017-01-13T03:52:22.574Z,932.66
2017-01-13T03:52:50.851Z,932.59
2017-01-13T03:53:19.020Z,932.6
2017-01-13T03:53:47.193Z,932.59
2017-01-13T03:54:15.367Z,932.58
2017-01-13T03:54:45.643Z,932.56
2017-01-13T03:55:13.965Z,932.55
2017-01-13T03:55:42.147Z,932.55
2017-01-13T03:56:10.406Z,932.54
2017-01-13T03:56:38.635Z,932.51
2017-01-13T03:57:06.813Z,932.52
2017-01-13T03:57:35.042Z,932.51
2017-01-13T03:58:03.210Z,932.5
2017-01-13T03:58:31.388Z,932.49
2017-01-13T03:58:59.573Z,932.49
2017-01-13T03:59:27.713Z,932.48
2017-01-13T03:59:55.988Z,932.47
2017-01-13T04:00:24.179Z,932.47
2017-01-13T04:00:52.377Z,932.51
2017-01-13T04:01:20.552Z,932.46
2017-01-13T04:01:49.451Z,932.47
2017-01-13T04:02:17.699Z,932.48
2017-01-13T04:02:45.977Z,932.48
2017-01-13T04:03:14.154Z,932.45
2017-01-13T04:04:25.011Z,932.46
2017-01-13T04:04:53.166Z,932.43
2017-01-13T04:05:21.306Z,932.43
2017-01-13T04:05:49.495Z,932.43
2017-01-13T04:06:17.662Z,932.44
2017-01-13T04:06:45.975Z,932.41
2017-01-13T04:07:14.128Z,932.41
2017-01-13T04:07:42.302Z,932.41
2017-01-13T04:08:10.492Z,932.42
2017-01-13T04:08:38.656Z,932.39
2017-01-13T04:09:06.805Z,932.39
2017-01-13T04:09:34.977Z,932.39
2017-01-13T04:10:03.145Z,932.39
2017-01-13T04:10:31.311Z,932.39
2017-01-13T04:10:59.492Z,932.37
2017-01-13T04:11:27.653Z,932.38
2017-01-13T04:11:55.860Z,932.38
2017-01-13T04:12:24.109Z,932.38
2017-01-13T04:12:52.280Z,932.36
2017-01-13T04:13:20.456Z,932.37
2017-01-13T04:13:48.657Z,932.38
2017-01-13T04:14:17.878Z,932.33
2017-01-13T04:14:46.078Z,932.37
2017-01-13T04:15:14.249Z,932.36
2017-01-13T04:15:42.410Z,932.36
2017-01-13T04:16:10.594Z,932.36
2017-01-13T04:16:39.212Z,932.37
2017-01-13T04:17:07.378Z,932.34
2017-01-13T04:17:35.544Z,932.37
2017-01-13T04:18:03.715Z,932.3
2017-01-13T04:18:31.919Z,932.32
2017-01-13T04:19:00.112Z,932.28
2017-01-13T04:19:28.291Z,932.29
2017-01-13T04:19:56.454Z,932.32
2017-01-13T04:20:24.653Z,932.31
2017-01-13T04:20:52.808Z,932.3
2017-01-13T04:21:20.968Z,932.33
2017-01-13T04:21:49.138Z,932.31
2017-01-13T04:22:17.310Z,932.29
2017-01-13T04:22:45.464Z,932.27
2017-01-13T04:23:13.623Z,932.3
2017-01-13T04:23:41.887Z,932.27
2017-01-13T04:24:10.070Z,932.27
2017-01-13T04:24:38.281Z,932.25
2017-01-13T04:25:06.457Z,932.24
2017-01-13T04:25:34.614Z,932.25
2017-01-13T04:26:02.859Z,932.22
2017-01-13T04:26:31.034Z,932.22
2017-01-13T04:26:59.197Z,932.24
2017-01-13T04:27:27.347Z,932.22
2017-01-13T04:27:55.558Z,932.2
2017-01-13T04:28:23.726Z,932.2
2017-01-13T04:28:51.883Z,932.23
2017-01-13T04:29:20.096Z,932.18
2017-01-13T04:29:48.318Z,932.2
2017-01-13T04:30:16.502Z,932.19
2017-01-13T04:30:44.669Z,932.19
2017-01-13T04:31:12.860Z,932.17
2017-01-13T04:31:41.028Z,932.19
2017-01-13T04:32:09.191Z,932.17
2017-01-13T04:32:37.359Z,932.15
2017-01-13T04:33:05.520Z,932.12
2017-01-13T04:33:34.297Z,932.12
2017-01-13T04:34:02.469Z,932.16
2017-01-13T04:34:30.641Z,932.12
2017-01-13T04:34:58.879Z,932.13
2017-01-13T04:35:27.029Z,932.11
2017-01-13T04:35:55.288Z,932.12
2017-01-13T04:36:23.466Z,932.09
2017-01-13T04:36:51.633Z,932.06
2017-01-13T04:37:19.785Z,932.07
2017-01-13T04:37:47.966Z,932.06
2017-01-13T04:38:16.139Z,932.06
2017-01-13T04:38:44.307Z,932.08
2017-01-13T04:39:12.510Z,932.04
2017-01-13T04:39:40.699Z,932.1
2017-01-13T04:40:08.875Z,932.08
2017-01-13T04:40:37.049Z,932.07
2017-01-13T04:41:05.196Z,932.08
2017-01-13T04:41:33.363Z,932.09
2017-01-13T04:42:01.600Z,932.11
2017-01-13T04:42:29.788Z,932.09
2017-01-13T04:42:58.028Z,932.1
2017-01-13T04:43:26.203Z,932.09
2017-01-13T04:43:54.385Z,932.09
2017-01-13T04:44:22.554Z,932.07
2017-01-13T04:44:50.798Z,932.13
2017-01-13T04:45:19.077Z,932.08
2017-01-13T04:45:47.232Z,932.09
2017-01-13T04:46:15.398Z,932.06
2017-01-13T04:46:43.567Z,932.07
2017-01-13T04:47:11.751Z,932.08
2017-01-13T04:47:39.930Z,932.09
2017-01-13T04:48:08.090Z,932.05
2017-01-13T04:48:39.361Z,932.04
2017-01-13T04:49:07.528Z,932.04
2017-01-13T04:49:35.713Z,932.02
2017-01-13T04:50:03.870Z,932.02
2017-01-13T04:50:32.155Z,932.03
2017-01-13T04:51:00.298Z,931.96
2017-01-13T04:51:28.870Z,931.99
2017-01-13T04:51:57.044Z,931.94
2017-01-13T04:52:25.256Z,931.97
2017-01-13T04:52:53.411Z,932
2017-01-13T04:53:21.583Z,931.97
2017-01-13T04:53:49.759Z,931.99
2017-01-13T04:54:17.957Z,932.03
2017-01-13T04:54:46.231Z,931.99
2017-01-13T04:55:14.384Z,931.99
2017-01-13T04:55:42.655Z,932
2017-01-13T04:56:10.921Z,932
2017-01-13T04:56:39.114Z,931.98
2017-01-13T04:57:07.289Z,931.99
2017-01-13T04:57:35.522Z,931.98
2017-01-13T04:58:03.694Z,931.98
2017-01-13T04:58:31.889Z,932.01
2017-01-13T04:59:00.047Z,931.97
2017-01-13T04:59:28.207Z,931.97
2017-01-13T04:59:56.350Z,931.97
2017-01-13T05:00:24.514Z,931.97
2017-01-13T05:00:52.700Z,931.96
2017-01-13T05:01:20.888Z,931.92
2017-01-13T05:01:49.058Z,931.93
2017-01-13T05:02:17.303Z,931.92
2017-01-13T05:02:45.485Z,931.94
2017-01-13T05:03:13.755Z,931.93
2017-01-13T05:03:41.923Z,931.92
2017-01-13T05:04:10.103Z,931.94
2017-01-13T05:04:38.365Z,931.93
2017-01-13T05:05:06.526Z,931.95
2017-01-13T05:05:34.697Z,931.94
2017-01-13T05:06:02.846Z,931.91
2017-01-13T05:06:31.043Z,931.92
2017-01-13T05:06:59.226Z,931.92
2017-01-13T05:07:27.427Z,931.9
2017-01-13T05:07:55.609Z,931.93
2017-01-13T05:08:23.768Z,931.92
2017-01-13T05:08:51.954Z,931.91
2017-01-13T05:09:20.142Z,931.91
2017-01-13T05:09:48.313Z,931.91
2017-01-13T05:10:16.469Z,931.92
2017-01-13T05:10:44.635Z,931.89
2017-01-13T05:11:12.816Z,931.9
2017-01-13T05:11:40.970Z,931.91
2017-01-13T05:12:09.134Z,931.87
2017-01-13T05:12:37.280Z,931.86
2017-01-13T05:13:05.453Z,931.86
2017-01-13T05:13:33.749Z,931.86
2017-01-13T05:14:01.935Z,931.84
2017-01-13T05:14:30.137Z,931.82
2017-01-13T05:14:58.279Z,931.83
2017-01-13T05:15:26.461Z,931.87
2017-01-13T05:15:54.628Z,931.84
2017-01-13T05:16:22.884Z,931.85
2017-01-13T05:16:51.040Z,931.83
2017-01-13T05:17:19.201Z,931.83
2017-01-13T05:17:47.351Z,931.82
2017-01-13T05:18:15.508Z,931.8
2017-01-13T05:18:43.664Z,931.8
2017-01-13T05:19:11.831Z,931.8
2017-01-13T05:19:40.003Z,931.8
2017-01-13T05:20:08.231Z,931.81
2017-01-13T05:20:36.397Z,931.78
2017-01-13T05:21:04.541Z,931.82
2017-01-13T05:21:32.737Z,931.79
2017-01-13T05:22:01.070Z,931.8
2017-01-13T05:22:29.238Z,931.77
2017-01-13T05:22:57.399Z,931.81
2017-01-13T05:23:25.554Z,931.8
2017-01-13T05:23:53.724Z,931.82
2017-01-13T05:24:21.983Z,931.79
2017-01-13T05:24:50.169Z,931.82
2017-01-13T05:25:18.308Z,931.78
2017-01-13T05:25:46.495Z,931.79
2017-01-13T05:26:14.655Z,931.79
2017-01-13T05:26:42.835Z,931.81
2017-01-13T05:27:11.005Z,931.79
2017-01-13T05:27:39.200Z,931.79
2017-01-13T05:28:07.358Z,931.8
2017-01-13T05:28:35.592Z,931.8
2017-01-13T05:29:03.788Z,931.79
2017-01-13T05:29:31.975Z,931.82
2017-01-13T05:30:00.142Z,931.81
2017-01-13T05:30:28.311Z,931.78
2017-01-13T05:30:56.528Z,931.78
2017-01-13T05:31:24.710Z,931.77
2017-01-13T05:31:52.865Z,931.77
2017-01-13T05:32:21.051Z,931.77
2017-01-13T05:32:49.350Z,931.76
2017-01-13T05:33:17.484Z,931.78
2017-01-13T05:33:45.666Z,931.75
2017-01-13T05:34:13.844Z,931.75
2017-01-13T05:34:42.036Z,931.77
2017-01-13T05:35:10.222Z,931.76
2017-01-13T05:35:38.394Z,931.78
2017-01-13T05:36:06.557Z,931.78
2017-01-13T05:36:34.816Z,931.76
2017-01-13T05:37:02.983Z,931.76
2017-01-13T05:37:31.165Z,931.78
2017-01-13T05:37:59.294Z,931.76
2017-01-13T05:38:27.484Z,931.77
2017-01-13T05:38:55.655Z,931.78
2017-01-13T05:39:23.856Z,931.76
2017-01-13T05:39:52.130Z,931.72
2017-01-13T05:40:20.284Z,931.73
2017-01-13T05:40:48.576Z,931.71
2017-01-13T05:41:16.741Z,931.72
2017-01-13T05:41:44.903Z,931.69
2017-01-13T05:42:13.054Z,931.68
2017-01-13T05:42:41.228Z,931.66
2017-01-13T05:43:09.433Z,931.68
2017-01-13T05:43:37.589Z,931.65
2017-01-13T05:44:05.836Z,931.69
2017-01-13T05:44:33.984Z,931.69
2017-01-13T05:45:02.161Z,931.67
2017-01-13T05:45:30.417Z,931.68
2017-01-13T05:45:58.589Z,931.68
2017-01-13T05:46:26.755Z,931.68
2017-01-13T05:46:54.917Z,931.7
2017-01-13T05:47:23.100Z,931.68
2017-01-13T05:47:51.468Z,931.67
2017-01-13T05:48:19.643Z,931.68
2017-01-13T05:48:47.977Z,931.67
2017-01-13T05:49:16.122Z,931.65
2017-01-13T05:49:44.313Z,931.64
2017-01-13T05:50:12.462Z,931.65
2017-01-13T05:50:40.631Z,931.63
2017-01-13T05:51:08.828Z,931.61
2017-01-13T05:51:37.042Z,931.65
2017-01-13T05:52:05.210Z,931.61
2017-01-13T05:52:33.394Z,931.63
2017-01-13T05:53:01.543Z,931.6
2017-01-13T05:53:29.730Z,931.63
2017-01-13T05:53:57.881Z,931.6